sensor_id;sensor_type;location;lat;lon;timestamp;temperature;humidity
45044;DHT22;30784;48.490;9.688;2024-01-30T00:01:41;9.00;42.70
45044;DHT22;30784;48.490;9.688;2024-01-30T00:04:07;9.00;42.60
45044;DHT22;30784;48.490;9.688;2024-01-30T00:06:32;9.00;42.70
45044;DHT22;30784;48.490;9.688;2024-01-30T00:08:58;9.00;42.90
45044;DHT22;30784;48.490;9.688;2024-01-30T00:11:24;9.00;42.80
45044;DHT22;30784;48.490;9.688;2024-01-30T00:13:53;9.00;42.80
45044;DHT22;30784;48.490;9.688;2024-01-30T00:16:24;9.00;42.90
45044;DHT22;30784;48.490;9.688;2024-01-30T00:18:53;9.00;42.90
45044;DHT22;30784;48.490;9.688;2024-01-30T00:21:19;9.00;42.80
45044;DHT22;30784;48.490;9.688;2024-01-30T00:23:45;9.00;42.70
45044;DHT22;30784;48.490;9.688;2024-01-30T00:26:11;9.00;42.80
45044;DHT22;30784;48.490;9.688;2024-01-30T00:28:37;9.10;42.80
45044;DHT22;30784;48.490;9.688;2024-01-30T00:31:03;9.10;42.80
45044;DHT22;30784;48.490;9.688;2024-01-30T00:33:29;9.10;42.70
45044;DHT22;30784;48.490;9.688;2024-01-30T00:35:55;9.10;42.60
45044;DHT22;30784;48.490;9.688;2024-01-30T00:38:20;9.10;42.60
45044;DHT22;30784;48.490;9.688;2024-01-30T00:40:46;9.10;42.50
45044;DHT22;30784;48.490;9.688;2024-01-30T00:43:11;9.10;42.50
45044;DHT22;30784;48.490;9.688;2024-01-30T00:45:37;9.00;42.50
45044;DHT22;30784;48.490;9.688;2024-01-30T00:48:03;9.00;42.60
45044;DHT22;30784;48.490;9.688;2024-01-30T00:50:28;9.00;42.50
45044;DHT22;30784;48.490;9.688;2024-01-30T00:52:54;9.00;42.50
45044;DHT22;30784;48.490;9.688;2024-01-30T00:55:19;8.90;42.50
45044;DHT22;30784;48.490;9.688;2024-01-30T00:57:45;8.90;42.60
45044;DHT22;30784;48.490;9.688;2024-01-30T01:00:11;8.90;42.70
45044;DHT22;30784;48.490;9.688;2024-01-30T01:02:38;8.90;42.70
45044;DHT22;30784;48.490;9.688;2024-01-30T01:05:04;8.90;42.80
45044;DHT22;30784;48.490;9.688;2024-01-30T01:07:30;8.90;42.90
45044;DHT22;30784;48.490;9.688;2024-01-30T01:09:56;8.90;42.80
45044;DHT22;30784;48.490;9.688;2024-01-30T01:12:21;8.90;42.80
45044;DHT22;30784;48.490;9.688;2024-01-30T01:14:47;8.90;42.70
45044;DHT22;30784;48.490;9.688;2024-01-30T01:17:12;8.90;42.90
45044;DHT22;30784;48.490;9.688;2024-01-30T01:19:38;8.90;42.20
45044;DHT22;30784;48.490;9.688;2024-01-30T01:22:03;8.80;42.20
45044;DHT22;30784;48.490;9.688;2024-01-30T01:24:32;8.80;42.10
45044;DHT22;30784;48.490;9.688;2024-01-30T01:27:00;8.80;42.00
45044;DHT22;30784;48.490;9.688;2024-01-30T01:29:26;8.80;42.20
45044;DHT22;30784;48.490;9.688;2024-01-30T01:31:55;8.80;42.20
45044;DHT22;30784;48.490;9.688;2024-01-30T01:34:21;8.80;42.00
45044;DHT22;30784;48.490;9.688;2024-01-30T01:36:47;8.70;42.00
45044;DHT22;30784;48.490;9.688;2024-01-30T01:39:12;8.70;41.90
45044;DHT22;30784;48.490;9.688;2024-01-30T01:41:38;8.70;41.90
45044;DHT22;30784;48.490;9.688;2024-01-30T01:44:03;8.70;42.10
45044;DHT22;30784;48.490;9.688;2024-01-30T01:46:31;8.70;42.00
45044;DHT22;30784;48.490;9.688;2024-01-30T01:48:58;8.70;41.90
45044;DHT22;30784;48.490;9.688;2024-01-30T01:51:24;8.70;41.80
45044;DHT22;30784;48.490;9.688;2024-01-30T01:53:52;8.80;41.80
45044;DHT22;30784;48.490;9.688;2024-01-30T01:56:18;8.70;41.60
45044;DHT22;30784;48.490;9.688;2024-01-30T01:58:46;8.70;41.50
45044;DHT22;30784;48.490;9.688;2024-01-30T02:01:13;8.70;41.50
45044;DHT22;30784;48.490;9.688;2024-01-30T02:03:40;8.70;41.50
45044;DHT22;30784;48.490;9.688;2024-01-30T02:06:06;8.70;41.60
45044;DHT22;30784;48.490;9.688;2024-01-30T02:08:32;8.80;41.60
45044;DHT22;30784;48.490;9.688;2024-01-30T02:10:58;8.70;41.50
45044;DHT22;30784;48.490;9.688;2024-01-30T02:13:25;8.80;41.50
45044;DHT22;30784;48.490;9.688;2024-01-30T02:15:51;8.80;41.30
45044;DHT22;30784;48.490;9.688;2024-01-30T02:18:18;8.80;41.50
45044;DHT22;30784;48.490;9.688;2024-01-30T02:20:44;8.80;41.40
45044;DHT22;30784;48.490;9.688;2024-01-30T02:23:10;8.80;41.30
45044;DHT22;30784;48.490;9.688;2024-01-30T02:25:39;8.80;41.30
45044;DHT22;30784;48.490;9.688;2024-01-30T02:28:13;8.80;41.20
45044;DHT22;30784;48.490;9.688;2024-01-30T02:30:46;8.80;41.20
45044;DHT22;30784;48.490;9.688;2024-01-30T02:33:12;8.80;41.10
45044;DHT22;30784;48.490;9.688;2024-01-30T02:35:37;8.80;41.60
45044;DHT22;30784;48.490;9.688;2024-01-30T02:38:03;8.80;41.10
45044;DHT22;30784;48.490;9.688;2024-01-30T02:40:29;8.80;41.00
45044;DHT22;30784;48.490;9.688;2024-01-30T02:42:55;8.80;41.00
45044;DHT22;30784;48.490;9.688;2024-01-30T02:45:21;8.80;41.00
45044;DHT22;30784;48.490;9.688;2024-01-30T02:47:46;8.80;40.90
45044;DHT22;30784;48.490;9.688;2024-01-30T02:50:13;8.80;40.90
45044;DHT22;30784;48.490;9.688;2024-01-30T02:52:40;8.90;40.90
45044;DHT22;30784;48.490;9.688;2024-01-30T02:55:06;8.90;40.90
45044;DHT22;30784;48.490;9.688;2024-01-30T02:57:33;8.90;40.80
45044;DHT22;30784;48.490;9.688;2024-01-30T02:59:59;8.90;40.60
45044;DHT22;30784;48.490;9.688;2024-01-30T03:02:25;8.90;40.70
45044;DHT22;30784;48.490;9.688;2024-01-30T03:04:50;8.90;41.20
45044;DHT22;30784;48.490;9.688;2024-01-30T03:07:16;8.90;40.50
45044;DHT22;30784;48.490;9.688;2024-01-30T03:09:42;8.90;40.50
45044;DHT22;30784;48.490;9.688;2024-01-30T03:12:09;9.00;40.60
45044;DHT22;30784;48.490;9.688;2024-01-30T03:14:35;9.00;40.50
45044;DHT22;30784;48.490;9.688;2024-01-30T03:17:00;9.00;40.50
45044;DHT22;30784;48.490;9.688;2024-01-30T03:19:26;9.00;40.40
45044;DHT22;30784;48.490;9.688;2024-01-30T03:21:52;9.10;40.40
45044;DHT22;30784;48.490;9.688;2024-01-30T03:24:17;9.00;40.30
45044;DHT22;30784;48.490;9.688;2024-01-30T03:26:43;9.00;40.10
45044;DHT22;30784;48.490;9.688;2024-01-30T03:29:09;9.00;40.20
45044;DHT22;30784;48.490;9.688;2024-01-30T03:31:34;9.10;40.20
45044;DHT22;30784;48.490;9.688;2024-01-30T03:34:01;9.00;40.10
45044;DHT22;30784;48.490;9.688;2024-01-30T03:36:27;9.10;40.10
45044;DHT22;30784;48.490;9.688;2024-01-30T03:38:52;9.00;40.00
45044;DHT22;30784;48.490;9.688;2024-01-30T03:41:18;9.10;40.10
45044;DHT22;30784;48.490;9.688;2024-01-30T03:43:43;9.00;39.90
45044;DHT22;30784;48.490;9.688;2024-01-30T03:46:09;9.00;39.90
45044;DHT22;30784;48.490;9.688;2024-01-30T03:48:36;9.10;39.90
45044;DHT22;30784;48.490;9.688;2024-01-30T03:51:02;9.10;39.90
45044;DHT22;30784;48.490;9.688;2024-01-30T03:53:27;9.00;40.30
45044;DHT22;30784;48.490;9.688;2024-01-30T03:55:53;9.00;39.80
45044;DHT22;30784;48.490;9.688;2024-01-30T03:58:18;9.00;39.60
45044;DHT22;30784;48.490;9.688;2024-01-30T04:00:44;9.00;39.70
45044;DHT22;30784;48.490;9.688;2024-01-30T04:03:10;9.10;39.90
45044;DHT22;30784;48.490;9.688;2024-01-30T04:05:35;9.00;39.70
45044;DHT22;30784;48.490;9.688;2024-01-30T04:08:01;9.00;39.60
45044;DHT22;30784;48.490;9.688;2024-01-30T04:10:26;9.00;39.50
45044;DHT22;30784;48.490;9.688;2024-01-30T04:12:52;9.00;39.50
45044;DHT22;30784;48.490;9.688;2024-01-30T04:15:18;9.00;39.50
45044;DHT22;30784;48.490;9.688;2024-01-30T04:17:44;9.00;39.40
45044;DHT22;30784;48.490;9.688;2024-01-30T04:20:14;9.00;39.30
45044;DHT22;30784;48.490;9.688;2024-01-30T04:22:41;9.00;39.20
45044;DHT22;30784;48.490;9.688;2024-01-30T04:25:07;9.00;39.30
45044;DHT22;30784;48.490;9.688;2024-01-30T04:27:32;9.00;39.10
45044;DHT22;30784;48.490;9.688;2024-01-30T04:29:58;9.00;39.20
45044;DHT22;30784;48.490;9.688;2024-01-30T04:32:23;9.00;39.20
45044;DHT22;30784;48.490;9.688;2024-01-30T04:34:49;9.00;39.20
45044;DHT22;30784;48.490;9.688;2024-01-30T04:37:14;9.00;39.30
45044;DHT22;30784;48.490;9.688;2024-01-30T04:39:40;9.00;39.10
45044;DHT22;30784;48.490;9.688;2024-01-30T04:42:06;9.00;39.20
45044;DHT22;30784;48.490;9.688;2024-01-30T04:44:31;9.00;39.30
45044;DHT22;30784;48.490;9.688;2024-01-30T04:46:57;9.10;39.50
45044;DHT22;30784;48.490;9.688;2024-01-30T04:49:26;9.00;39.30
45044;DHT22;30784;48.490;9.688;2024-01-30T04:51:52;9.10;39.30
45044;DHT22;30784;48.490;9.688;2024-01-30T04:54:17;9.10;39.40
45044;DHT22;30784;48.490;9.688;2024-01-30T04:56:43;9.10;39.30
45044;DHT22;30784;48.490;9.688;2024-01-30T04:59:08;9.10;39.40
45044;DHT22;30784;48.490;9.688;2024-01-30T05:01:34;9.10;39.30
45044;DHT22;30784;48.490;9.688;2024-01-30T05:04:00;9.10;39.20
45044;DHT22;30784;48.490;9.688;2024-01-30T05:06:26;9.10;39.20
45044;DHT22;30784;48.490;9.688;2024-01-30T05:08:52;9.10;39.30
45044;DHT22;30784;48.490;9.688;2024-01-30T05:11:18;9.10;39.20
45044;DHT22;30784;48.490;9.688;2024-01-30T05:13:44;9.10;39.00
45044;DHT22;30784;48.490;9.688;2024-01-30T05:16:09;9.10;39.20
45044;DHT22;30784;48.490;9.688;2024-01-30T05:18:35;9.10;39.00
45044;DHT22;30784;48.490;9.688;2024-01-30T05:21:01;9.10;38.70
45044;DHT22;30784;48.490;9.688;2024-01-30T05:23:27;9.10;38.60
45044;DHT22;30784;48.490;9.688;2024-01-30T05:25:52;9.20;38.70
45044;DHT22;30784;48.490;9.688;2024-01-30T05:28:18;9.20;38.60
45044;DHT22;30784;48.490;9.688;2024-01-30T05:30:43;9.20;38.60
45044;DHT22;30784;48.490;9.688;2024-01-30T05:33:09;9.30;38.60
45044;DHT22;30784;48.490;9.688;2024-01-30T05:35:35;9.30;38.60
45044;DHT22;30784;48.490;9.688;2024-01-30T05:38:00;9.30;38.50
45044;DHT22;30784;48.490;9.688;2024-01-30T05:40:26;9.30;38.50
45044;DHT22;30784;48.490;9.688;2024-01-30T05:42:52;9.30;38.40
45044;DHT22;30784;48.490;9.688;2024-01-30T05:45:18;9.40;38.30
45044;DHT22;30784;48.490;9.688;2024-01-30T05:47:43;9.40;38.50
45044;DHT22;30784;48.490;9.688;2024-01-30T05:50:09;9.40;38.50
45044;DHT22;30784;48.490;9.688;2024-01-30T05:52:34;9.40;38.30
45044;DHT22;30784;48.490;9.688;2024-01-30T05:55:00;9.40;38.50
45044;DHT22;30784;48.490;9.688;2024-01-30T05:57:26;9.50;38.50
45044;DHT22;30784;48.490;9.688;2024-01-30T05:59:51;9.50;38.50
45044;DHT22;30784;48.490;9.688;2024-01-30T06:02:17;9.50;38.60
45044;DHT22;30784;48.490;9.688;2024-01-30T06:04:43;9.50;38.40
45044;DHT22;30784;48.490;9.688;2024-01-30T06:07:09;9.50;38.30
45044;DHT22;30784;48.490;9.688;2024-01-30T06:09:35;9.50;38.30
45044;DHT22;30784;48.490;9.688;2024-01-30T06:12:00;9.50;38.30
45044;DHT22;30784;48.490;9.688;2024-01-30T06:14:26;9.50;38.30
45044;DHT22;30784;48.490;9.688;2024-01-30T06:16:51;9.50;38.20
45044;DHT22;30784;48.490;9.688;2024-01-30T06:19:17;9.50;38.00
45044;DHT22;30784;48.490;9.688;2024-01-30T06:21:42;9.50;38.30
45044;DHT22;30784;48.490;9.688;2024-01-30T06:24:08;9.50;38.10
45044;DHT22;30784;48.490;9.688;2024-01-30T06:26:34;9.50;38.20
45044;DHT22;30784;48.490;9.688;2024-01-30T06:28:59;9.50;38.20
45044;DHT22;30784;48.490;9.688;2024-01-30T06:31:25;9.50;38.10
45044;DHT22;30784;48.490;9.688;2024-01-30T06:33:50;9.40;38.10
45044;DHT22;30784;48.490;9.688;2024-01-30T06:36:16;9.50;38.00
45044;DHT22;30784;48.490;9.688;2024-01-30T06:38:42;9.40;37.90
45044;DHT22;30784;48.490;9.688;2024-01-30T06:41:07;9.40;37.90
45044;DHT22;30784;48.490;9.688;2024-01-30T06:43:33;9.40;38.00
45044;DHT22;30784;48.490;9.688;2024-01-30T06:45:58;9.40;38.10
45044;DHT22;30784;48.490;9.688;2024-01-30T06:48:25;9.40;38.40
45044;DHT22;30784;48.490;9.688;2024-01-30T06:50:53;9.40;38.40
45044;DHT22;30784;48.490;9.688;2024-01-30T06:53:19;9.40;38.30
45044;DHT22;30784;48.490;9.688;2024-01-30T06:55:44;9.50;38.20
45044;DHT22;30784;48.490;9.688;2024-01-30T06:58:10;9.40;38.00
45044;DHT22;30784;48.490;9.688;2024-01-30T07:00:35;9.40;38.10
45044;DHT22;30784;48.490;9.688;2024-01-30T07:03:01;9.40;38.30
45044;DHT22;30784;48.490;9.688;2024-01-30T07:05:27;9.40;38.40
45044;DHT22;30784;48.490;9.688;2024-01-30T07:07:52;9.40;38.40
45044;DHT22;30784;48.490;9.688;2024-01-30T07:10:18;9.40;38.50
45044;DHT22;30784;48.490;9.688;2024-01-30T07:12:44;9.40;38.50
45044;DHT22;30784;48.490;9.688;2024-01-30T07:15:10;9.40;38.60
45044;DHT22;30784;48.490;9.688;2024-01-30T07:17:35;9.40;38.60
45044;DHT22;30784;48.490;9.688;2024-01-30T07:20:01;9.50;38.50
45044;DHT22;30784;48.490;9.688;2024-01-30T07:22:29;9.50;38.80
45044;DHT22;30784;48.490;9.688;2024-01-30T07:24:55;9.50;38.50
45044;DHT22;30784;48.490;9.688;2024-01-30T07:27:21;9.60;38.60
45044;DHT22;30784;48.490;9.688;2024-01-30T07:29:46;9.60;38.60
45044;DHT22;30784;48.490;9.688;2024-01-30T07:32:12;9.60;38.40
45044;DHT22;30784;48.490;9.688;2024-01-30T07:34:38;9.70;38.30
45044;DHT22;30784;48.490;9.688;2024-01-30T07:37:03;9.70;38.20
45044;DHT22;30784;48.490;9.688;2024-01-30T07:39:29;9.80;38.60
45044;DHT22;30784;48.490;9.688;2024-01-30T07:41:54;9.80;38.00
45044;DHT22;30784;48.490;9.688;2024-01-30T07:44:20;9.90;37.80
45044;DHT22;30784;48.490;9.688;2024-01-30T07:46:46;10.00;37.80
45044;DHT22;30784;48.490;9.688;2024-01-30T07:49:12;10.00;37.80
45044;DHT22;30784;48.490;9.688;2024-01-30T07:51:39;10.10;37.80
45044;DHT22;30784;48.490;9.688;2024-01-30T07:54:05;10.10;37.40
45044;DHT22;30784;48.490;9.688;2024-01-30T07:56:30;10.20;37.20
45044;DHT22;30784;48.490;9.688;2024-01-30T07:58:56;10.40;37.20
45044;DHT22;30784;48.490;9.688;2024-01-30T08:01:21;10.40;37.20
45044;DHT22;30784;48.490;9.688;2024-01-30T08:03:47;10.50;36.90
45044;DHT22;30784;48.490;9.688;2024-01-30T08:06:12;10.60;36.80
45044;DHT22;30784;48.490;9.688;2024-01-30T08:08:38;10.70;36.70
45044;DHT22;30784;48.490;9.688;2024-01-30T08:11:04;10.80;36.60
45044;DHT22;30784;48.490;9.688;2024-01-30T08:13:29;10.90;36.60
45044;DHT22;30784;48.490;9.688;2024-01-30T08:15:55;11.00;36.60
45044;DHT22;30784;48.490;9.688;2024-01-30T08:18:20;11.10;36.50
45044;DHT22;30784;48.490;9.688;2024-01-30T08:20:46;11.20;36.40
45044;DHT22;30784;48.490;9.688;2024-01-30T08:23:11;11.30;36.40
45044;DHT22;30784;48.490;9.688;2024-01-30T08:25:37;11.40;36.00
45044;DHT22;30784;48.490;9.688;2024-01-30T08:28:03;11.50;35.90
45044;DHT22;30784;48.490;9.688;2024-01-30T08:30:29;11.60;35.90
45044;DHT22;30784;48.490;9.688;2024-01-30T08:32:54;11.80;35.60
45044;DHT22;30784;48.490;9.688;2024-01-30T08:35:20;11.90;35.70
45044;DHT22;30784;48.490;9.688;2024-01-30T08:37:46;12.10;35.50
45044;DHT22;30784;48.490;9.688;2024-01-30T08:40:11;12.10;35.40
45044;DHT22;30784;48.490;9.688;2024-01-30T08:42:37;12.30;35.40
45044;DHT22;30784;48.490;9.688;2024-01-30T08:45:03;12.40;35.10
45044;DHT22;30784;48.490;9.688;2024-01-30T08:47:30;12.60;34.60
45044;DHT22;30784;48.490;9.688;2024-01-30T08:49:56;12.70;34.80
45044;DHT22;30784;48.490;9.688;2024-01-30T08:52:21;12.80;34.10
45044;DHT22;30784;48.490;9.688;2024-01-30T08:54:47;12.90;33.20
45044;DHT22;30784;48.490;9.688;2024-01-30T08:57:12;13.10;33.80
45044;DHT22;30784;48.490;9.688;2024-01-30T08:59:38;13.10;33.40
45044;DHT22;30784;48.490;9.688;2024-01-30T09:02:03;13.30;33.30
45044;DHT22;30784;48.490;9.688;2024-01-30T09:04:30;13.40;32.40
45044;DHT22;30784;48.490;9.688;2024-01-30T09:06:55;13.50;32.50
45044;DHT22;30784;48.490;9.688;2024-01-30T09:09:21;13.60;32.60
45044;DHT22;30784;48.490;9.688;2024-01-30T09:11:47;13.60;31.80
45044;DHT22;30784;48.490;9.688;2024-01-30T09:14:12;13.80;31.40
45044;DHT22;30784;48.490;9.688;2024-01-30T09:16:38;13.80;31.40
45044;DHT22;30784;48.490;9.688;2024-01-30T09:19:04;13.90;31.70
45044;DHT22;30784;48.490;9.688;2024-01-30T09:21:29;14.00;31.50
45044;DHT22;30784;48.490;9.688;2024-01-30T09:24:02;14.10;31.80
45044;DHT22;30784;48.490;9.688;2024-01-30T09:26:30;14.20;32.00
45044;DHT22;30784;48.490;9.688;2024-01-30T09:28:56;14.20;31.60
45044;DHT22;30784;48.490;9.688;2024-01-30T09:31:21;14.40;31.70
45044;DHT22;30784;48.490;9.688;2024-01-30T09:33:47;14.50;31.10
45044;DHT22;30784;48.490;9.688;2024-01-30T09:36:14;14.60;31.00
45044;DHT22;30784;48.490;9.688;2024-01-30T09:38:45;14.70;31.10
45044;DHT22;30784;48.490;9.688;2024-01-30T09:41:10;14.80;31.10
45044;DHT22;30784;48.490;9.688;2024-01-30T09:43:38;14.80;30.90
45044;DHT22;30784;48.490;9.688;2024-01-30T09:46:05;14.90;30.90
45044;DHT22;30784;48.490;9.688;2024-01-30T09:48:32;15.00;30.60
45044;DHT22;30784;48.490;9.688;2024-01-30T09:50:58;15.10;30.40
45044;DHT22;30784;48.490;9.688;2024-01-30T09:53:24;15.20;30.40
45044;DHT22;30784;48.490;9.688;2024-01-30T09:55:50;15.30;30.50
45044;DHT22;30784;48.490;9.688;2024-01-30T09:58:16;15.40;30.50
45044;DHT22;30784;48.490;9.688;2024-01-30T10:00:42;15.50;30.20
45044;DHT22;30784;48.490;9.688;2024-01-30T10:03:08;15.60;29.90
45044;DHT22;30784;48.490;9.688;2024-01-30T10:05:35;15.70;29.80
45044;DHT22;30784;48.490;9.688;2024-01-30T10:08:06;15.70;29.60
45044;DHT22;30784;48.490;9.688;2024-01-30T10:10:32;15.80;29.50
45044;DHT22;30784;48.490;9.688;2024-01-30T10:12:57;15.80;29.50
45044;DHT22;30784;48.490;9.688;2024-01-30T10:15:23;15.80;29.90
45044;DHT22;30784;48.490;9.688;2024-01-30T10:17:49;15.90;29.50
45044;DHT22;30784;48.490;9.688;2024-01-30T10:20:15;15.90;29.50
45044;DHT22;30784;48.490;9.688;2024-01-30T10:22:41;16.00;29.30
45044;DHT22;30784;48.490;9.688;2024-01-30T10:25:09;16.00;29.20
45044;DHT22;30784;48.490;9.688;2024-01-30T10:27:35;16.00;29.10
45044;DHT22;30784;48.490;9.688;2024-01-30T10:30:01;16.10;28.90
45044;DHT22;30784;48.490;9.688;2024-01-30T10:32:27;16.10;29.30
45044;DHT22;30784;48.490;9.688;2024-01-30T10:34:52;16.20;29.10
45044;DHT22;30784;48.490;9.688;2024-01-30T10:37:19;16.20;28.70
45044;DHT22;30784;48.490;9.688;2024-01-30T10:39:46;16.30;28.50
45044;DHT22;30784;48.490;9.688;2024-01-30T10:42:17;16.30;28.40
45044;DHT22;30784;48.490;9.688;2024-01-30T10:47:12;16.40;28.40
45044;DHT22;30784;48.490;9.688;2024-01-30T10:49:41;16.40;28.40
45044;DHT22;30784;48.490;9.688;2024-01-30T10:52:09;16.40;28.30
45044;DHT22;30784;48.490;9.688;2024-01-30T10:54:36;16.50;28.40
45044;DHT22;30784;48.490;9.688;2024-01-30T10:57:03;16.50;28.20
45044;DHT22;30784;48.490;9.688;2024-01-30T10:59:30;16.60;28.10
45044;DHT22;30784;48.490;9.688;2024-01-30T11:01:58;16.60;27.70
45044;DHT22;30784;48.490;9.688;2024-01-30T11:04:24;16.60;27.90
45044;DHT22;30784;48.490;9.688;2024-01-30T11:06:51;16.60;27.90
45044;DHT22;30784;48.490;9.688;2024-01-30T11:09:17;16.60;27.80
45044;DHT22;30784;48.490;9.688;2024-01-30T11:11:59;16.60;27.90
45044;DHT22;30784;48.490;9.688;2024-01-30T11:14:30;16.60;27.70
45044;DHT22;30784;48.490;9.688;2024-01-30T11:16:59;16.60;27.30
45044;DHT22;30784;48.490;9.688;2024-01-30T11:19:26;16.60;27.30
45044;DHT22;30784;48.490;9.688;2024-01-30T11:21:55;16.60;27.20
45044;DHT22;30784;48.490;9.688;2024-01-30T11:24:22;16.60;27.20
45044;DHT22;30784;48.490;9.688;2024-01-30T11:26:49;16.50;27.10
45044;DHT22;30784;48.490;9.688;2024-01-30T11:29:17;16.50;27.20
45044;DHT22;30784;48.490;9.688;2024-01-30T11:31:57;16.60;27.20
45044;DHT22;30784;48.490;9.688;2024-01-30T11:34:22;16.50;27.40
45044;DHT22;30784;48.490;9.688;2024-01-30T11:37:12;16.50;27.10
45044;DHT22;30784;48.490;9.688;2024-01-30T11:39:37;16.50;27.00
45044;DHT22;30784;48.490;9.688;2024-01-30T11:42:03;16.50;26.80
45044;DHT22;30784;48.490;9.688;2024-01-30T11:44:30;16.50;26.80
45044;DHT22;30784;48.490;9.688;2024-01-30T11:46:56;16.40;26.50
45044;DHT22;30784;48.490;9.688;2024-01-30T11:49:21;16.40;26.80
45044;DHT22;30784;48.490;9.688;2024-01-30T11:51:48;16.40;26.90
45044;DHT22;30784;48.490;9.688;2024-01-30T11:54:17;16.30;26.70
45044;DHT22;30784;48.490;9.688;2024-01-30T11:56:43;16.30;26.70
45044;DHT22;30784;48.490;9.688;2024-01-30T11:59:09;16.30;26.60
45044;DHT22;30784;48.490;9.688;2024-01-30T12:01:35;16.30;26.70
45044;DHT22;30784;48.490;9.688;2024-01-30T12:04:01;16.30;26.70
45044;DHT22;30784;48.490;9.688;2024-01-30T12:06:27;16.30;26.70
45044;DHT22;30784;48.490;9.688;2024-01-30T12:08:59;16.20;26.70
45044;DHT22;30784;48.490;9.688;2024-01-30T12:11:26;16.30;26.70
45044;DHT22;30784;48.490;9.688;2024-01-30T12:13:52;16.20;26.60
45044;DHT22;30784;48.490;9.688;2024-01-30T12:16:19;16.30;27.20
45044;DHT22;30784;48.490;9.688;2024-01-30T12:18:44;16.30;26.60
45044;DHT22;30784;48.490;9.688;2024-01-30T12:21:10;16.30;26.60
45044;DHT22;30784;48.490;9.688;2024-01-30T12:23:36;16.30;26.80
45044;DHT22;30784;48.490;9.688;2024-01-30T12:26:02;16.30;26.60
45044;DHT22;30784;48.490;9.688;2024-01-30T12:28:33;16.30;26.70
45044;DHT22;30784;48.490;9.688;2024-01-30T12:31:02;16.40;26.60
45044;DHT22;30784;48.490;9.688;2024-01-30T12:33:29;16.40;26.60
45044;DHT22;30784;48.490;9.688;2024-01-30T12:35:54;16.40;26.60
45044;DHT22;30784;48.490;9.688;2024-01-30T12:38:20;16.40;26.60
45044;DHT22;30784;48.490;9.688;2024-01-30T12:40:46;16.50;26.50
45044;DHT22;30784;48.490;9.688;2024-01-30T12:43:13;16.50;26.60
45044;DHT22;30784;48.490;9.688;2024-01-30T12:45:39;16.50;26.30
45044;DHT22;30784;48.490;9.688;2024-01-30T12:48:05;16.50;26.40
45044;DHT22;30784;48.490;9.688;2024-01-30T12:50:30;16.50;26.60
45044;DHT22;30784;48.490;9.688;2024-01-30T12:52:56;16.50;26.40
45044;DHT22;30784;48.490;9.688;2024-01-30T12:55:21;16.60;26.50
45044;DHT22;30784;48.490;9.688;2024-01-30T12:57:47;16.60;26.50
45044;DHT22;30784;48.490;9.688;2024-01-30T13:00:13;16.60;26.50
45044;DHT22;30784;48.490;9.688;2024-01-30T13:02:38;16.60;26.40
45044;DHT22;30784;48.490;9.688;2024-01-30T13:05:04;16.70;26.50
45044;DHT22;30784;48.490;9.688;2024-01-30T13:07:30;16.70;26.40
45044;DHT22;30784;48.490;9.688;2024-01-30T13:09:57;16.70;26.40
45044;DHT22;30784;48.490;9.688;2024-01-30T13:12:28;16.80;26.30
45044;DHT22;30784;48.490;9.688;2024-01-30T13:14:54;16.80;26.20
45044;DHT22;30784;48.490;9.688;2024-01-30T13:17:19;16.80;26.20
45044;DHT22;30784;48.490;9.688;2024-01-30T13:19:45;16.80;26.20
45044;DHT22;30784;48.490;9.688;2024-01-30T13:22:10;16.80;26.40
45044;DHT22;30784;48.490;9.688;2024-01-30T13:24:36;16.80;26.70
45044;DHT22;30784;48.490;9.688;2024-01-30T13:27:02;16.80;26.80
45044;DHT22;30784;48.490;9.688;2024-01-30T13:29:30;16.80;26.90
45044;DHT22;30784;48.490;9.688;2024-01-30T13:31:56;16.90;26.90
45044;DHT22;30784;48.490;9.688;2024-01-30T13:34:22;16.80;27.00
45044;DHT22;30784;48.490;9.688;2024-01-30T13:36:47;16.90;27.10
45044;DHT22;30784;48.490;9.688;2024-01-30T13:39:14;16.80;27.10
45044;DHT22;30784;48.490;9.688;2024-01-30T13:41:42;16.80;27.10
45044;DHT22;30784;48.490;9.688;2024-01-30T13:44:07;16.80;27.30
45044;DHT22;30784;48.490;9.688;2024-01-30T13:46:34;16.80;27.50
45044;DHT22;30784;48.490;9.688;2024-01-30T13:48:59;16.70;27.50
45044;DHT22;30784;48.490;9.688;2024-01-30T13:51:25;16.70;27.50
45044;DHT22;30784;48.490;9.688;2024-01-30T13:53:51;16.70;27.80
45044;DHT22;30784;48.490;9.688;2024-01-30T13:56:16;16.70;27.80
45044;DHT22;30784;48.490;9.688;2024-01-30T13:58:42;16.70;27.90
45044;DHT22;30784;48.490;9.688;2024-01-30T14:01:07;16.70;28.20
45044;DHT22;30784;48.490;9.688;2024-01-30T14:03:35;16.70;28.30
45044;DHT22;30784;48.490;9.688;2024-01-30T14:06:00;16.70;28.30
45044;DHT22;30784;48.490;9.688;2024-01-30T14:08:26;16.70;28.50
45044;DHT22;30784;48.490;9.688;2024-01-30T14:10:54;16.80;28.50
45044;DHT22;30784;48.490;9.688;2024-01-30T14:13:20;16.80;28.50
45044;DHT22;30784;48.490;9.688;2024-01-30T14:15:46;16.80;28.60
45044;DHT22;30784;48.490;9.688;2024-01-30T14:18:11;16.70;28.60
45044;DHT22;30784;48.490;9.688;2024-01-30T14:20:37;16.80;28.80
45044;DHT22;30784;48.490;9.688;2024-01-30T14:23:02;16.80;28.70
45044;DHT22;30784;48.490;9.688;2024-01-30T14:25:28;16.80;28.90
45044;DHT22;30784;48.490;9.688;2024-01-30T14:27:53;16.80;29.00
45044;DHT22;30784;48.490;9.688;2024-01-30T14:30:19;16.80;29.10
45044;DHT22;30784;48.490;9.688;2024-01-30T14:32:45;16.80;29.10
45044;DHT22;30784;48.490;9.688;2024-01-30T14:35:10;16.80;29.10
45044;DHT22;30784;48.490;9.688;2024-01-30T14:37:37;16.80;29.20
45044;DHT22;30784;48.490;9.688;2024-01-30T14:40:03;16.70;29.30
45044;DHT22;30784;48.490;9.688;2024-01-30T14:42:29;16.70;29.20
45044;DHT22;30784;48.490;9.688;2024-01-30T14:44:57;16.60;29.40
45044;DHT22;30784;48.490;9.688;2024-01-30T14:47:22;16.70;30.00
45044;DHT22;30784;48.490;9.688;2024-01-30T14:49:48;16.70;29.60
45044;DHT22;30784;48.490;9.688;2024-01-30T14:52:14;16.60;29.50
45044;DHT22;30784;48.490;9.688;2024-01-30T14:54:40;16.60;29.50
45044;DHT22;30784;48.490;9.688;2024-01-30T14:57:06;16.60;29.50
45044;DHT22;30784;48.490;9.688;2024-01-30T14:59:31;16.50;29.40
45044;DHT22;30784;48.490;9.688;2024-01-30T15:01:57;16.50;29.60
45044;DHT22;30784;48.490;9.688;2024-01-30T15:04:22;16.50;29.90
45044;DHT22;30784;48.490;9.688;2024-01-30T15:06:48;16.40;29.80
45044;DHT22;30784;48.490;9.688;2024-01-30T15:09:15;16.30;30.00
45044;DHT22;30784;48.490;9.688;2024-01-30T15:11:47;16.30;30.30
45044;DHT22;30784;48.490;9.688;2024-01-30T15:14:12;16.20;30.60
45044;DHT22;30784;48.490;9.688;2024-01-30T15:16:38;16.10;30.70
45044;DHT22;30784;48.490;9.688;2024-01-30T15:19:04;16.00;31.00
45044;DHT22;30784;48.490;9.688;2024-01-30T15:21:31;16.00;31.20
45044;DHT22;30784;48.490;9.688;2024-01-30T15:23:56;15.90;31.40
45044;DHT22;30784;48.490;9.688;2024-01-30T15:26:22;15.80;31.50
45044;DHT22;30784;48.490;9.688;2024-01-30T15:28:48;15.70;31.90
45044;DHT22;30784;48.490;9.688;2024-01-30T15:31:13;15.60;32.10
45044;DHT22;30784;48.490;9.688;2024-01-30T15:33:39;15.60;31.90